Sao Joao Nepomuceno, Brazil
Current Conditions -  °F | °C
As of 9:00 AM on Monday 22 Dec 2014 (Local Time) from SBBQ Reporting Station
Broken Clouds Broken Clouds  
Wind Chill: 72°   Ceiling: 1100
Heat Index: 72°   Visibility: 4mi
Dew Point: 66°   Wind: 12mph
Humidity: 83%   Direction: 300°WNW
Pressure: 30.15"   Gusts: NA
Location:  21.54°S, 43.01°W
Report Text: SBBQ 221100Z 30010KT 7000 BKN011 22/19 Q1021
Loading
Personal Weather Stations






























Interactive Weather Map New forecast layout! Learn more

10-Day Weather Forecast

Advertisements
Track Severe Weather on mobile